MSR776 EIDW-HECA
Flight info
| Callsign | MSR776 |
|---|---|
| Flight time | 4h 28m |
| Altitude | 33000 |
| Route | PESIT6A PESIT DCT BOLRO DCT ARGED UN502 LGL UN859 SOPIL DCT PECNO DCT ETREK UM616 BODRU DCT EBORA M623 OMARD A3 SODRI G374 BTA DCT RAVAL DCT OKUBU DCT ISKIA DCT POLIT DCT CALAA DCT AMREX M729 LORNO UL81 METRU DCT NABSI DCT NOZ L617 MENKU |
| Aircraft | A321/M-SDE3FGHIRWY/LB1 |
Departure
| Time | 2026-02-17 08:14 |
|---|---|
| Airport | Dublin Airport (EIDW) |
Arrival
| Time | 2026-02-17 12:43 |
|---|---|
| Airport | Cairo International Airport (HECA) |
| Time | Latitude | Longitude | Altitude | Speed | Heading |
|---|---|---|---|---|---|
| 2026-02-17 07:28 | 53.42668 | -6.24706 | 211 ft | 0 kts | 147° |
| 2026-02-17 07:35 | 53.42668 | -6.24707 | 211 ft | 0 kts | 147° |
| 2026-02-17 07:49 | 53.42669 | -6.24707 | 184 ft | 0 kts | 147° |
| 2026-02-17 08:02 | 53.42684 | -6.24724 | 216 ft | 3 kts | 159° |
| 2026-02-17 08:02 | 53.42703 | -6.24731 | 211 ft | 3 kts | 189° |
| 2026-02-17 08:03 | 53.42724 | -6.24711 | 213 ft | 0 kts | 247° |
| 2026-02-17 08:06 | 53.42724 | -6.24712 | 213 ft | 0 kts | 247° |
| 2026-02-17 08:06 | 53.42715 | -6.24746 | 214 ft | 7 kts | 245° |
| 2026-02-17 08:07 | 53.42677 | -6.24928 | 213 ft | 10 kts | 308° |
| 2026-02-17 08:07 | 53.42737 | -6.24995 | 217 ft | 11 kts | 326° |
| 2026-02-17 08:07 | 53.42790 | -6.25092 | 211 ft | 12 kts | 288° |
| 2026-02-17 08:07 | 53.42803 | -6.25235 | 214 ft | 13 kts | 295° |
| 2026-02-17 08:08 | 53.42882 | -6.25307 | 217 ft | 14 kts | 336° |
| 2026-02-17 08:08 | 53.42942 | -6.25352 | 216 ft | 14 kts | 338° |
| 2026-02-17 08:08 | 53.43004 | -6.25394 | 211 ft | 7 kts | 337° |
| 2026-02-17 08:08 | 53.43051 | -6.25429 | 220 ft | 8 kts | 335° |
| 2026-02-17 08:09 | 53.43107 | -6.25470 | 217 ft | 9 kts | 337° |
| 2026-02-17 08:09 | 53.43173 | -6.25516 | 211 ft | 11 kts | 338° |
| 2026-02-17 08:09 | 53.43245 | -6.25569 | 211 ft | 12 kts | 335° |
| 2026-02-17 08:09 | 53.43327 | -6.25631 | 217 ft | 13 kts | 336° |
| 2026-02-17 08:10 | 53.43403 | -6.25600 | 211 ft | 13 kts | 75° |
| 2026-02-17 08:10 | 53.43400 | -6.25439 | 214 ft | 14 kts | 95° |
| 2026-02-17 08:10 | 53.43391 | -6.25265 | 215 ft | 15 kts | 95° |
| 2026-02-17 08:11 | 53.43370 | -6.24884 | 211 ft | 17 kts | 95° |
| 2026-02-17 08:11 | 53.43359 | -6.24676 | 219 ft | 18 kts | 95° |
| 2026-02-17 08:11 | 53.43386 | -6.24564 | 211 ft | 9 kts | 21° |
| 2026-02-17 08:11 | 53.43446 | -6.24545 | 222 ft | 9 kts | 9° |
| 2026-02-17 08:12 | 53.43505 | -6.24536 | 213 ft | 8 kts | 347° |
| 2026-02-17 08:12 | 53.43526 | -6.24607 | 215 ft | 0 kts | 276° |
| 2026-02-17 08:13 | 53.43527 | -6.24629 | 218 ft | 11 kts | 276° |
| 2026-02-17 08:13 | 53.43560 | -6.25213 | 211 ft | 88 kts | 275° |
| 2026-02-17 08:14 | 53.43636 | -6.26604 | 211 ft | 149 kts | 275° |
| 2026-02-17 08:14 | 53.43742 | -6.28429 | 819 ft | 153 kts | 277° |
| 2026-02-17 08:14 | 53.44040 | -6.30085 | 1568 ft | 152 kts | 316° |
| 2026-02-17 08:15 | 53.45715 | -6.32924 | 2495 ft | 196 kts | 311° |
| 2026-02-17 08:15 | 53.46556 | -6.34864 | 2968 ft | 212 kts | 308° |
| 2026-02-17 08:15 | 53.47416 | -6.36938 | 3583 ft | 222 kts | 307° |
| 2026-02-17 08:15 | 53.48338 | -6.39191 | 4022 ft | 246 kts | 306° |
| 2026-02-17 08:16 | 53.49340 | -6.41629 | 4875 ft | 257 kts | 306° |
| 2026-02-17 08:16 | 53.50365 | -6.44112 | 5972 ft | 260 kts | 305° |
| 2026-02-17 08:16 | 53.51074 | -6.46921 | 6976 ft | 269 kts | 277° |
| 2026-02-17 08:16 | 53.50752 | -6.50021 | 7927 ft | 278 kts | 244° |
| 2026-02-17 08:17 | 53.49436 | -6.52454 | 8727 ft | 295 kts | 213° |
| 2026-02-17 08:17 | 53.47427 | -6.53590 | 8967 ft | 315 kts | 183° |
| 2026-02-17 08:17 | 53.45333 | -6.53153 | 9045 ft | 297 kts | 163° |
| 2026-02-17 08:17 | 53.43401 | -6.51991 | 9054 ft | 294 kts | 157° |
| 2026-02-17 08:18 | 53.41516 | -6.50674 | 9057 ft | 293 kts | 158° |
| 2026-02-17 08:18 | 53.39611 | -6.49432 | 9056 ft | 293 kts | 160° |
| 2026-02-17 08:18 | 53.37680 | -6.48332 | 9055 ft | 293 kts | 163° |
| 2026-02-17 08:19 | 53.33755 | -6.46484 | 9055 ft | 293 kts | 166° |
| 2026-02-17 08:19 | 53.31776 | -6.45646 | 9054 ft | 293 kts | 164° |
| 2026-02-17 08:19 | 53.29878 | -6.44375 | 9264 ft | 296 kts | 155° |
| 2026-02-17 08:19 | 53.28004 | -6.42920 | 10041 ft | 298 kts | 155° |
| 2026-02-17 08:20 | 53.26085 | -6.41440 | 10397 ft | 314 kts | 155° |
| 2026-02-17 08:20 | 53.24030 | -6.39862 | 10532 ft | 335 kts | 156° |
| 2026-02-17 08:20 | 53.21847 | -6.38187 | 10673 ft | 355 kts | 156° |
| 2026-02-17 08:20 | 53.19571 | -6.36435 | 11064 ft | 364 kts | 156° |
| 2026-02-17 08:21 | 53.17256 | -6.34646 | 11630 ft | 368 kts | 156° |
| 2026-02-17 08:21 | 53.14921 | -6.32838 | 12215 ft | 372 kts | 156° |
| 2026-02-17 08:21 | 53.12559 | -6.31014 | 12814 ft | 376 kts | 156° |
| 2026-02-17 08:21 | 53.10177 | -6.29181 | 13390 ft | 379 kts | 156° |
| 2026-02-17 08:22 | 53.07765 | -6.27334 | 13965 ft | 383 kts | 156° |
| 2026-02-17 08:22 | 53.05335 | -6.25477 | 14454 ft | 387 kts | 157° |
| 2026-02-17 08:22 | 53.02872 | -6.23595 | 14916 ft | 392 kts | 157° |
| 2026-02-17 08:23 | 52.97862 | -6.19760 | 15834 ft | 401 kts | 158° |
| 2026-02-17 08:23 | 52.95317 | -6.17810 | 16285 ft | 405 kts | 158° |
| 2026-02-17 08:23 | 52.92741 | -6.15835 | 16753 ft | 410 kts | 159° |
| 2026-02-17 08:23 | 52.90137 | -6.13838 | 17193 ft | 414 kts | 159° |
| 2026-02-17 08:24 | 52.87509 | -6.11827 | 17625 ft | 419 kts | 159° |
| 2026-02-17 08:24 | 52.84850 | -6.09791 | 18049 ft | 423 kts | 160° |
| 2026-02-17 08:24 | 52.82163 | -6.07731 | 18441 ft | 428 kts | 160° |
| 2026-02-17 08:24 | 52.79450 | -6.05652 | 18793 ft | 431 kts | 160° |
| 2026-02-17 08:25 | 52.76721 | -6.03560 | 19165 ft | 435 kts | 160° |
| 2026-02-17 08:25 | 52.74004 | -6.01481 | 19535 ft | 437 kts | 160° |
| 2026-02-17 08:25 | 52.71229 | -5.99365 | 19909 ft | 440 kts | 160° |
| 2026-02-17 08:25 | 52.68442 | -5.97237 | 20285 ft | 443 kts | 161° |
| 2026-02-17 08:26 | 52.65598 | -5.95069 | 20658 ft | 446 kts | 161° |
| 2026-02-17 08:26 | 52.62769 | -5.92916 | 21028 ft | 449 kts | 161° |
| 2026-02-17 08:26 | 52.59923 | -5.90753 | 21396 ft | 452 kts | 161° |
| 2026-02-17 08:27 | 52.54182 | -5.86404 | 22133 ft | 457 kts | 161° |
| 2026-02-17 08:27 | 52.51318 | -5.84247 | 22488 ft | 460 kts | 162° |
| 2026-02-17 08:27 | 52.48360 | -5.82029 | 22851 ft | 463 kts | 162° |
| 2026-02-17 08:27 | 52.45426 | -5.79827 | 23070 ft | 465 kts | 162° |
| 2026-02-17 08:28 | 52.42507 | -5.77514 | 23087 ft | 469 kts | 157° |
| 2026-02-17 08:28 | 52.39763 | -5.74552 | 23083 ft | 476 kts | 147° |
| 2026-02-17 08:28 | 52.37297 | -5.70852 | 23378 ft | 485 kts | 136° |
| 2026-02-17 08:28 | 52.35086 | -5.66751 | 23719 ft | 489 kts | 135° |
| 2026-02-17 08:29 | 52.32824 | -5.62578 | 23983 ft | 492 kts | 135° |
| 2026-02-17 08:29 | 52.30533 | -5.58395 | 24239 ft | 495 kts | 136° |
| 2026-02-17 08:29 | 52.28186 | -5.54150 | 24495 ft | 499 kts | 136° |
| 2026-02-17 08:29 | 52.25847 | -5.49939 | 24745 ft | 502 kts | 136° |
| 2026-02-17 08:30 | 52.23498 | -5.45708 | 24987 ft | 505 kts | 136° |
| 2026-02-17 08:30 | 52.21138 | -5.41436 | 25234 ft | 509 kts | 136° |
| 2026-02-17 08:30 | 52.18766 | -5.37128 | 25474 ft | 512 kts | 136° |
| 2026-02-17 08:31 | 52.13979 | -5.28431 | 25946 ft | 519 kts | 136° |
| 2026-02-17 08:31 | 52.11563 | -5.24046 | 26196 ft | 522 kts | 137° |
| 2026-02-17 08:31 | 52.09131 | -5.19645 | 26431 ft | 525 kts | 137° |
| 2026-02-17 08:31 | 52.06675 | -5.15224 | 26665 ft | 528 kts | 137° |
| 2026-02-17 08:32 | 52.04201 | -5.10787 | 26897 ft | 531 kts | 137° |
| 2026-02-17 08:32 | 52.01741 | -5.06395 | 27125 ft | 534 kts | 137° |
| 2026-02-17 08:32 | 51.99232 | -5.01920 | 27358 ft | 537 kts | 137° |
| 2026-02-17 08:32 | 51.96712 | -4.97426 | 27591 ft | 540 kts | 137° |
| 2026-02-17 08:33 | 51.94176 | -4.92908 | 27814 ft | 543 kts | 137° |
| 2026-02-17 08:33 | 51.91626 | -4.88370 | 28025 ft | 546 kts | 137° |
| 2026-02-17 08:33 | 51.89065 | -4.83806 | 28232 ft | 549 kts | 137° |
| 2026-02-17 08:33 | 51.86485 | -4.79229 | 28435 ft | 551 kts | 138° |
| 2026-02-17 08:34 | 51.83889 | -4.74649 | 28622 ft | 554 kts | 138° |
| 2026-02-17 08:34 | 51.81274 | -4.70038 | 28798 ft | 557 kts | 138° |
| 2026-02-17 08:34 | 51.78654 | -4.65423 | 28991 ft | 559 kts | 138° |
| 2026-02-17 08:35 | 51.73380 | -4.56144 | 29422 ft | 561 kts | 138° |
| 2026-02-17 08:35 | 51.70736 | -4.51498 | 29649 ft | 562 kts | 138° |
| 2026-02-17 08:35 | 51.68083 | -4.46856 | 29889 ft | 563 kts | 138° |
| 2026-02-17 08:35 | 51.65425 | -4.42223 | 30112 ft | 564 kts | 138° |
| 2026-02-17 08:36 | 51.62760 | -4.37578 | 30311 ft | 565 kts | 138° |
| 2026-02-17 08:36 | 51.60086 | -4.32930 | 30517 ft | 566 kts | 138° |
| 2026-02-17 08:36 | 51.57416 | -4.28292 | 30732 ft | 566 kts | 138° |
| 2026-02-17 08:36 | 51.54734 | -4.23645 | 30961 ft | 566 kts | 138° |
| 2026-02-17 08:37 | 51.52054 | -4.19014 | 31170 ft | 566 kts | 138° |
| 2026-02-17 08:37 | 51.49372 | -4.14383 | 31381 ft | 566 kts | 138° |
| 2026-02-17 08:37 | 51.46690 | -4.09760 | 31592 ft | 567 kts | 138° |
| 2026-02-17 08:37 | 51.44003 | -4.05131 | 31799 ft | 567 kts | 138° |
| 2026-02-17 08:38 | 51.41323 | -4.00511 | 32012 ft | 567 kts | 138° |
| 2026-02-17 08:38 | 51.38630 | -3.95886 | 32220 ft | 567 kts | 138° |
| 2026-02-17 08:38 | 51.35937 | -3.91281 | 32431 ft | 567 kts | 138° |
| 2026-02-17 08:39 | 51.30535 | -3.82082 | 32841 ft | 567 kts | 138° |
| 2026-02-17 08:39 | 51.27834 | -3.77491 | 33037 ft | 567 kts | 138° |
| 2026-02-17 08:39 | 51.22450 | -3.68345 | 33090 ft | 563 kts | 138° |
| 2026-02-17 08:40 | 51.17081 | -3.59266 | 33091 ft | 563 kts | 138° |
| 2026-02-17 08:40 | 51.11695 | -3.50207 | 33090 ft | 563 kts | 138° |
| 2026-02-17 08:41 | 51.06305 | -3.41174 | 33090 ft | 563 kts | 138° |
| 2026-02-17 08:41 | 51.00910 | -3.32154 | 33090 ft | 563 kts | 138° |
| 2026-02-17 08:42 | 50.95512 | -3.23128 | 33094 ft | 564 kts | 137° |
| 2026-02-17 08:43 | 50.87382 | -3.09646 | 33095 ft | 564 kts | 138° |
| 2026-02-17 08:43 | 50.81943 | -3.00686 | 33098 ft | 564 kts | 138° |
| 2026-02-17 08:44 | 50.76499 | -2.91736 | 33102 ft | 565 kts | 137° |
| 2026-02-17 08:44 | 50.71058 | -2.82803 | 33099 ft | 565 kts | 138° |
| 2026-02-17 08:45 | 50.65599 | -2.73896 | 33097 ft | 565 kts | 138° |
| 2026-02-17 08:45 | 50.60131 | -2.65009 | 33104 ft | 565 kts | 138° |
| 2026-02-17 08:46 | 50.54665 | -2.56137 | 33106 ft | 565 kts | 138° |
| 2026-02-17 08:46 | 50.49191 | -2.47285 | 33116 ft | 565 kts | 138° |
| 2026-02-17 08:47 | 50.40970 | -2.34050 | 33110 ft | 565 kts | 138° |
| 2026-02-17 08:47 | 50.36411 | -2.26733 | 33113 ft | 564 kts | 138° |
| 2026-02-17 08:48 | 50.30914 | -2.17946 | 33112 ft | 564 kts | 138° |
| 2026-02-17 08:48 | 50.25409 | -2.09196 | 33115 ft | 564 kts | 138° |
| 2026-02-17 08:49 | 50.19904 | -2.00457 | 33114 ft | 564 kts | 138° |
| 2026-02-17 08:49 | 50.14354 | -1.91694 | 33117 ft | 564 kts | 138° |
| 2026-02-17 08:50 | 50.08828 | -1.83009 | 33117 ft | 564 kts | 138° |
| 2026-02-17 08:51 | 50.00541 | -1.69990 | 33118 ft | 564 kts | 138° |
| 2026-02-17 08:51 | 49.95365 | -1.60910 | 33123 ft | 566 kts | 131° |
| 2026-02-17 08:52 | 49.90410 | -1.51404 | 33122 ft | 567 kts | 130° |
| 2026-02-17 08:52 | 49.85481 | -1.41864 | 33128 ft | 567 kts | 130° |
| 2026-02-17 08:53 | 49.80513 | -1.32397 | 33121 ft | 567 kts | 131° |
| 2026-02-17 08:53 | 49.75512 | -1.22975 | 33123 ft | 566 kts | 131° |
| 2026-02-17 08:54 | 49.70505 | -1.13559 | 33120 ft | 566 kts | 131° |
| 2026-02-17 08:54 | 49.65501 | -1.04158 | 33117 ft | 567 kts | 131° |
| 2026-02-17 08:55 | 49.57977 | -0.90091 | 33110 ft | 567 kts | 131° |
| 2026-02-17 08:55 | 49.52954 | -0.80738 | 33106 ft | 567 kts | 131° |
| 2026-02-17 08:56 | 49.47921 | -0.71413 | 33099 ft | 567 kts | 131° |
| 2026-02-17 08:56 | 49.42882 | -0.62111 | 33100 ft | 566 kts | 131° |
| 2026-02-17 08:57 | 49.37837 | -0.52820 | 33096 ft | 566 kts | 131° |
| 2026-02-17 08:57 | 49.32781 | -0.43543 | 33098 ft | 566 kts | 131° |
| 2026-02-17 08:58 | 49.27726 | -0.34304 | 33101 ft | 565 kts | 131° |
| 2026-02-17 08:59 | 49.20129 | -0.20484 | 33102 ft | 565 kts | 131° |
| 2026-02-17 08:59 | 49.15061 | -0.11310 | 33099 ft | 565 kts | 131° |
| 2026-02-17 09:00 | 49.09984 | -0.02144 | 33087 ft | 565 kts | 131° |
| 2026-02-17 09:00 | 49.04902 | 0.07008 | 33085 ft | 565 kts | 131° |
| 2026-02-17 09:01 | 48.99849 | 0.16075 | 33089 ft | 565 kts | 131° |
| 2026-02-17 09:01 | 48.94719 | 0.25241 | 33086 ft | 565 kts | 131° |
| 2026-02-17 09:02 | 48.89653 | 0.34261 | 33092 ft | 565 kts | 131° |
| 2026-02-17 09:02 | 48.84530 | 0.43304 | 33080 ft | 564 kts | 134° |
| 2026-02-17 09:03 | 48.78592 | 0.50900 | 33080 ft | 556 kts | 153° |
| 2026-02-17 09:03 | 48.75221 | 0.53724 | 33076 ft | 549 kts | 162° |
| 2026-02-17 09:03 | 48.68109 | 0.57331 | 33078 ft | 535 kts | 174° |
| 2026-02-17 09:04 | 48.60889 | 0.60140 | 33080 ft | 535 kts | 174° |
| 2026-02-17 09:04 | 48.53681 | 0.62955 | 33081 ft | 535 kts | 174° |
| 2026-02-17 09:05 | 48.46470 | 0.65808 | 33085 ft | 536 kts | 173° |
| 2026-02-17 09:05 | 48.39268 | 0.68758 | 33086 ft | 537 kts | 173° |
| 2026-02-17 09:06 | 48.32063 | 0.71722 | 33086 ft | 537 kts | 173° |
| 2026-02-17 09:07 | 48.21248 | 0.76084 | 33084 ft | 536 kts | 174° |
| 2026-02-17 09:07 | 48.14026 | 0.78912 | 33096 ft | 536 kts | 174° |
| 2026-02-17 09:08 | 48.06805 | 0.81710 | 33092 ft | 536 kts | 174° |
| 2026-02-17 09:08 | 47.99581 | 0.84531 | 33097 ft | 536 kts | 174° |
| 2026-02-17 09:09 | 47.92366 | 0.87353 | 33098 ft | 537 kts | 174° |
| 2026-02-17 09:09 | 47.85141 | 0.90177 | 33091 ft | 537 kts | 174° |
| 2026-02-17 09:10 | 47.77910 | 0.92984 | 33099 ft | 536 kts | 174° |
| 2026-02-17 09:10 | 47.70681 | 0.95776 | 33105 ft | 536 kts | 174° |
| 2026-02-17 09:11 | 47.63628 | 0.99579 | 33108 ft | 554 kts | 152° |
| 2026-02-17 09:11 | 47.60590 | 1.03133 | 33106 ft | 560 kts | 135° |
| 2026-02-17 09:11 | 47.55260 | 1.11572 | 33101 ft | 561 kts | 134° |
| 2026-02-17 09:12 | 47.49957 | 1.20061 | 33104 ft | 562 kts | 134° |
| 2026-02-17 09:12 | 47.44632 | 1.28533 | 33109 ft | 563 kts | 134° |
| 2026-02-17 09:13 | 47.39316 | 1.36924 | 33114 ft | 563 kts | 134° |
| 2026-02-17 09:13 | 47.33951 | 1.45349 | 33121 ft | 563 kts | 134° |
| 2026-02-17 09:14 | 47.28584 | 1.53773 | 33129 ft | 564 kts | 134° |
| 2026-02-17 09:15 | 47.20523 | 1.66392 | 33126 ft | 564 kts | 134° |
| 2026-02-17 09:15 | 47.15136 | 1.74774 | 33126 ft | 564 kts | 134° |
| 2026-02-17 09:16 | 47.09736 | 1.83163 | 33123 ft | 565 kts | 134° |
| 2026-02-17 09:16 | 47.04339 | 1.91528 | 33122 ft | 565 kts | 134° |
| 2026-02-17 09:17 | 46.98921 | 1.99878 | 33122 ft | 565 kts | 134° |
| 2026-02-17 09:17 | 46.93499 | 2.08202 | 33121 ft | 565 kts | 134° |
| 2026-02-17 09:18 | 46.88073 | 2.16522 | 33124 ft | 565 kts | 134° |
| 2026-02-17 09:18 | 46.82647 | 2.24829 | 33121 ft | 565 kts | 134° |
| 2026-02-17 09:19 | 46.74487 | 2.37257 | 33117 ft | 565 kts | 134° |
| 2026-02-17 09:19 | 46.69036 | 2.45525 | 33116 ft | 566 kts | 134° |
| 2026-02-17 09:20 | 46.63572 | 2.53774 | 33120 ft | 566 kts | 134° |
| 2026-02-17 09:20 | 46.58112 | 2.62007 | 33109 ft | 566 kts | 134° |
| 2026-02-17 09:21 | 46.52639 | 2.70226 | 33112 ft | 566 kts | 134° |
| 2026-02-17 09:21 | 46.47158 | 2.78435 | 33119 ft | 566 kts | 134° |
| 2026-02-17 09:22 | 46.41674 | 2.86631 | 33116 ft | 566 kts | 134° |
| 2026-02-17 09:23 | 46.33436 | 2.98889 | 33115 ft | 566 kts | 134° |
| 2026-02-17 09:23 | 46.27938 | 3.07035 | 33119 ft | 566 kts | 134° |
| 2026-02-17 09:24 | 46.22435 | 3.15165 | 33123 ft | 566 kts | 134° |
| 2026-02-17 09:24 | 46.16923 | 3.23270 | 33123 ft | 566 kts | 134° |
| 2026-02-17 09:25 | 46.11404 | 3.31374 | 33137 ft | 566 kts | 134° |
| 2026-02-17 09:25 | 46.05883 | 3.39470 | 33130 ft | 566 kts | 134° |
| 2026-02-17 09:26 | 46.00359 | 3.47542 | 33128 ft | 566 kts | 134° |
| 2026-02-17 09:26 | 45.94822 | 3.55588 | 33116 ft | 566 kts | 134° |
| 2026-02-17 09:27 | 45.86510 | 3.67652 | 33125 ft | 566 kts | 134° |
| 2026-02-17 09:27 | 45.80953 | 3.75673 | 33122 ft | 566 kts | 134° |
| 2026-02-17 09:28 | 45.75393 | 3.83671 | 33115 ft | 566 kts | 134° |
| 2026-02-17 09:28 | 45.70775 | 3.90305 | 33114 ft | 566 kts | 134° |
| 2026-02-17 09:29 | 45.65218 | 3.98262 | 33109 ft | 566 kts | 134° |
| 2026-02-17 09:29 | 45.59638 | 4.06224 | 33111 ft | 566 kts | 134° |
| 2026-02-17 09:30 | 45.51268 | 4.18124 | 33103 ft | 567 kts | 134° |
| 2026-02-17 09:31 | 45.42877 | 4.30016 | 33104 ft | 568 kts | 134° |
| 2026-02-17 09:31 | 45.37259 | 4.37941 | 33102 ft | 569 kts | 134° |
| 2026-02-17 09:32 | 45.31631 | 4.45859 | 33104 ft | 570 kts | 135° |
| 2026-02-17 09:32 | 45.25994 | 4.53762 | 33103 ft | 570 kts | 135° |
| 2026-02-17 09:33 | 45.20342 | 4.61658 | 33107 ft | 570 kts | 134° |
| 2026-02-17 09:33 | 45.15271 | 4.70251 | 33108 ft | 568 kts | 125° |
| 2026-02-17 09:34 | 45.10424 | 4.79108 | 33115 ft | 569 kts | 125° |
| 2026-02-17 09:35 | 45.03128 | 4.92363 | 33127 ft | 570 kts | 125° |
| 2026-02-17 09:35 | 44.98248 | 5.01197 | 33126 ft | 570 kts | 125° |
| 2026-02-17 09:36 | 44.93362 | 5.10023 | 33128 ft | 571 kts | 125° |
| 2026-02-17 09:36 | 44.88462 | 5.18845 | 33116 ft | 571 kts | 125° |
| 2026-02-17 09:37 | 44.83548 | 5.27661 | 33111 ft | 571 kts | 125° |
| 2026-02-17 09:37 | 44.78631 | 5.36455 | 33098 ft | 572 kts | 125° |
| 2026-02-17 09:38 | 44.73705 | 5.45248 | 33096 ft | 572 kts | 125° |
| 2026-02-17 09:38 | 44.68837 | 5.53911 | 33085 ft | 572 kts | 126° |
| 2026-02-17 09:39 | 44.61417 | 5.67034 | 33081 ft | 572 kts | 126° |
| 2026-02-17 09:39 | 44.56462 | 5.75753 | 33085 ft | 572 kts | 126° |
| 2026-02-17 09:40 | 44.51503 | 5.84474 | 33077 ft | 572 kts | 126° |
| 2026-02-17 09:40 | 44.46537 | 5.93187 | 33063 ft | 572 kts | 126° |
| 2026-02-17 09:41 | 44.41572 | 6.01865 | 33060 ft | 572 kts | 126° |
| 2026-02-17 09:41 | 44.36587 | 6.10541 | 33051 ft | 572 kts | 126° |
| 2026-02-17 09:42 | 44.31600 | 6.19207 | 33063 ft | 572 kts | 126° |
| 2026-02-17 09:43 | 44.24116 | 6.32180 | 33071 ft | 571 kts | 126° |
| 2026-02-17 09:43 | 44.18689 | 6.40260 | 33040 ft | 572 kts | 140° |
| 2026-02-17 09:44 | 44.12522 | 6.47248 | 33035 ft | 571 kts | 141° |
| 2026-02-17 09:44 | 44.06419 | 6.54170 | 33014 ft | 569 kts | 141° |
| 2026-02-17 09:45 | 44.00250 | 6.61165 | 33007 ft | 568 kts | 141° |
| 2026-02-17 09:45 | 43.94181 | 6.68039 | 32996 ft | 566 kts | 140° |
| 2026-02-17 09:46 | 43.88082 | 6.74894 | 32977 ft | 564 kts | 141° |
| 2026-02-17 09:46 | 43.81990 | 6.81711 | 32980 ft | 562 kts | 141° |
| 2026-02-17 09:47 | 43.72893 | 6.91891 | 32960 ft | 560 kts | 141° |
| 2026-02-17 09:47 | 43.66838 | 6.98639 | 32976 ft | 559 kts | 141° |
| 2026-02-17 09:48 | 43.60760 | 7.05367 | 32978 ft | 560 kts | 141° |
| 2026-02-17 09:48 | 43.54680 | 7.12098 | 32974 ft | 561 kts | 141° |
| 2026-02-17 09:49 | 43.48588 | 7.18853 | 32907 ft | 563 kts | 141° |
| 2026-02-17 09:49 | 43.42466 | 7.25602 | 32897 ft | 565 kts | 141° |
| 2026-02-17 09:50 | 43.36322 | 7.32361 | 32898 ft | 567 kts | 141° |
| 2026-02-17 09:51 | 43.26985 | 7.42396 | 32907 ft | 569 kts | 141° |
| 2026-02-17 09:51 | 43.24117 | 7.46105 | 32913 ft | 565 kts | 126° |
| 2026-02-17 09:51 | 43.21932 | 7.50519 | 32902 ft | 555 kts | 110° |
| 2026-02-17 09:52 | 43.18823 | 7.60110 | 32902 ft | 550 kts | 105° |
| 2026-02-17 09:52 | 43.15786 | 7.69743 | 32898 ft | 551 kts | 105° |
| 2026-02-17 09:53 | 43.12727 | 7.79391 | 32904 ft | 553 kts | 105° |
| 2026-02-17 09:53 | 43.09632 | 7.89035 | 32907 ft | 554 kts | 105° |
| 2026-02-17 09:54 | 43.06525 | 7.98698 | 32908 ft | 555 kts | 105° |
| 2026-02-17 09:54 | 43.03422 | 8.08369 | 32911 ft | 556 kts | 105° |
| 2026-02-17 09:55 | 42.98728 | 8.22886 | 32917 ft | 557 kts | 105° |
| 2026-02-17 09:55 | 42.95575 | 8.32553 | 32923 ft | 558 kts | 105° |
| 2026-02-17 09:56 | 42.92417 | 8.42227 | 32923 ft | 558 kts | 105° |
| 2026-02-17 09:56 | 42.89251 | 8.51902 | 32920 ft | 559 kts | 105° |
| 2026-02-17 09:57 | 42.86073 | 8.61575 | 32924 ft | 559 kts | 105° |
| 2026-02-17 09:57 | 42.82885 | 8.71237 | 32932 ft | 560 kts | 105° |
| 2026-02-17 09:58 | 42.79688 | 8.80904 | 32940 ft | 560 kts | 105° |
| 2026-02-17 09:59 | 42.74882 | 8.95417 | 32933 ft | 561 kts | 105° |
| 2026-02-17 09:59 | 42.71654 | 9.05097 | 32921 ft | 562 kts | 105° |
| 2026-02-17 10:00 | 42.68408 | 9.14769 | 32881 ft | 562 kts | 105° |
| 2026-02-17 10:00 | 42.65149 | 9.24445 | 32856 ft | 564 kts | 105° |
| 2026-02-17 10:01 | 42.61880 | 9.34130 | 32855 ft | 564 kts | 105° |
| 2026-02-17 10:01 | 42.58622 | 9.43749 | 32852 ft | 565 kts | 105° |
| 2026-02-17 10:02 | 42.55352 | 9.53444 | 32866 ft | 564 kts | 104° |
| 2026-02-17 10:02 | 42.52165 | 9.63160 | 32863 ft | 564 kts | 104° |
| 2026-02-17 10:03 | 42.47393 | 9.77765 | 32849 ft | 565 kts | 104° |
| 2026-02-17 10:03 | 42.44173 | 9.87489 | 32861 ft | 566 kts | 105° |
| 2026-02-17 10:04 | 42.40769 | 9.97120 | 32864 ft | 573 kts | 111° |
| 2026-02-17 10:04 | 42.36799 | 10.06483 | 32862 ft | 575 kts | 112° |
| 2026-02-17 10:05 | 42.32750 | 10.15786 | 32867 ft | 575 kts | 113° |
| 2026-02-17 10:05 | 42.28698 | 10.25100 | 32874 ft | 575 kts | 113° |
| 2026-02-17 10:06 | 42.24664 | 10.34422 | 32872 ft | 575 kts | 113° |
| 2026-02-17 10:07 | 42.18600 | 10.48391 | 32866 ft | 575 kts | 113° |
| 2026-02-17 10:07 | 42.14544 | 10.57687 | 32862 ft | 575 kts | 113° |
| 2026-02-17 10:08 | 42.10481 | 10.66974 | 32866 ft | 575 kts | 113° |
| 2026-02-17 10:08 | 42.06401 | 10.76241 | 32856 ft | 575 kts | 114° |
| 2026-02-17 10:09 | 42.03007 | 10.83920 | 32846 ft | 575 kts | 114° |
| 2026-02-17 10:09 | 41.98925 | 10.93157 | 32842 ft | 574 kts | 114° |
| 2026-02-17 10:10 | 41.94847 | 11.02369 | 32847 ft | 573 kts | 114° |
| 2026-02-17 10:10 | 41.90760 | 11.11568 | 32838 ft | 573 kts | 114° |
| 2026-02-17 10:11 | 41.84629 | 11.25317 | 32839 ft | 572 kts | 115° |
| 2026-02-17 10:11 | 41.80531 | 11.34456 | 32832 ft | 571 kts | 115° |
| 2026-02-17 10:12 | 41.76434 | 11.43566 | 32830 ft | 571 kts | 115° |
| 2026-02-17 10:12 | 41.72331 | 11.52653 | 32825 ft | 570 kts | 115° |
| 2026-02-17 10:13 | 41.68230 | 11.61729 | 32823 ft | 569 kts | 115° |
| 2026-02-17 10:13 | 41.64129 | 11.70787 | 32820 ft | 569 kts | 115° |
| 2026-02-17 10:14 | 41.60023 | 11.79806 | 32821 ft | 568 kts | 115° |
| 2026-02-17 10:15 | 41.53864 | 11.93298 | 32808 ft | 566 kts | 115° |
| 2026-02-17 10:15 | 41.49763 | 12.02251 | 32802 ft | 565 kts | 116° |
| 2026-02-17 10:16 | 41.45665 | 12.11172 | 32802 ft | 564 kts | 116° |
| 2026-02-17 10:16 | 41.41565 | 12.20066 | 32803 ft | 562 kts | 116° |
| 2026-02-17 10:17 | 41.37468 | 12.28920 | 32804 ft | 561 kts | 116° |
| 2026-02-17 10:17 | 41.33408 | 12.37690 | 32798 ft | 559 kts | 116° |
| 2026-02-17 10:18 | 41.29323 | 12.46474 | 32799 ft | 558 kts | 116° |
| 2026-02-17 10:18 | 41.25234 | 12.55230 | 32794 ft | 556 kts | 116° |
| 2026-02-17 10:19 | 41.19117 | 12.68290 | 32792 ft | 554 kts | 116° |
| 2026-02-17 10:19 | 41.15054 | 12.76969 | 32784 ft | 553 kts | 117° |
| 2026-02-17 10:20 | 41.10986 | 12.85613 | 32779 ft | 552 kts | 117° |
| 2026-02-17 10:20 | 41.06914 | 12.94223 | 32778 ft | 551 kts | 117° |
| 2026-02-17 10:21 | 41.02838 | 13.02815 | 32764 ft | 550 kts | 117° |
| 2026-02-17 10:21 | 40.98767 | 13.11388 | 32759 ft | 549 kts | 117° |
| 2026-02-17 10:22 | 40.94695 | 13.19937 | 32759 ft | 549 kts | 117° |
| 2026-02-17 10:23 | 40.88588 | 13.32718 | 32741 ft | 547 kts | 118° |
| 2026-02-17 10:23 | 40.84512 | 13.41210 | 32723 ft | 546 kts | 118° |
| 2026-02-17 10:24 | 40.80441 | 13.49669 | 32716 ft | 545 kts | 118° |
| 2026-02-17 10:24 | 40.76373 | 13.58094 | 32700 ft | 544 kts | 118° |
| 2026-02-17 10:25 | 40.72303 | 13.66500 | 32705 ft | 543 kts | 118° |
| 2026-02-17 10:25 | 40.69595 | 13.72108 | 32699 ft | 542 kts | 118° |
| 2026-02-17 10:26 | 40.67393 | 13.76682 | 32692 ft | 540 kts | 118° |
| 2026-02-17 10:26 | 40.63344 | 13.85009 | 32684 ft | 539 kts | 119° |
| 2026-02-17 10:27 | 40.57540 | 13.96861 | 32683 ft | 536 kts | 119° |
| 2026-02-17 10:27 | 40.53511 | 14.05094 | 32669 ft | 534 kts | 120° |
| 2026-02-17 10:28 | 40.49489 | 14.13287 | 32666 ft | 533 kts | 120° |
| 2026-02-17 10:28 | 40.45471 | 14.21437 | 32663 ft | 531 kts | 120° |
| 2026-02-17 10:29 | 40.41466 | 14.29568 | 32671 ft | 529 kts | 120° |
| 2026-02-17 10:29 | 40.37461 | 14.37661 | 32673 ft | 528 kts | 120° |
| 2026-02-17 10:30 | 40.33459 | 14.45723 | 32676 ft | 527 kts | 121° |
| 2026-02-17 10:31 | 40.27465 | 14.57750 | 32684 ft | 524 kts | 121° |
| 2026-02-17 10:31 | 40.23481 | 14.65734 | 32675 ft | 523 kts | 121° |
| 2026-02-17 10:32 | 40.19502 | 14.73691 | 32692 ft | 522 kts | 121° |
| 2026-02-17 10:32 | 40.15516 | 14.81616 | 32685 ft | 521 kts | 122° |
| 2026-02-17 10:33 | 40.10910 | 14.88925 | 32696 ft | 521 kts | 130° |
| 2026-02-17 10:33 | 40.06131 | 14.96031 | 32693 ft | 520 kts | 130° |
| 2026-02-17 10:34 | 40.01369 | 15.03108 | 32702 ft | 518 kts | 130° |
| 2026-02-17 10:34 | 39.96649 | 15.10114 | 32693 ft | 517 kts | 130° |
| 2026-02-17 10:35 | 39.89541 | 15.20646 | 32690 ft | 515 kts | 131° |
| 2026-02-17 10:35 | 39.84806 | 15.27619 | 32680 ft | 513 kts | 131° |
| 2026-02-17 10:36 | 39.80078 | 15.34566 | 32676 ft | 512 kts | 131° |
| 2026-02-17 10:36 | 39.75363 | 15.41493 | 32667 ft | 511 kts | 131° |
| 2026-02-17 10:37 | 39.70646 | 15.48388 | 32665 ft | 510 kts | 131° |
| 2026-02-17 10:37 | 39.65933 | 15.55258 | 32649 ft | 509 kts | 131° |
| 2026-02-17 10:38 | 39.61234 | 15.62115 | 32647 ft | 508 kts | 131° |
| 2026-02-17 10:39 | 39.54160 | 15.72400 | 32647 ft | 506 kts | 132° |
| 2026-02-17 10:39 | 39.49477 | 15.79187 | 32635 ft | 505 kts | 132° |
| 2026-02-17 10:40 | 39.44824 | 15.85915 | 32635 ft | 504 kts | 132° |
| 2026-02-17 10:40 | 39.40144 | 15.92654 | 32623 ft | 503 kts | 133° |
| 2026-02-17 10:41 | 39.35470 | 15.99384 | 32628 ft | 502 kts | 133° |
| 2026-02-17 10:41 | 39.30809 | 16.06089 | 32617 ft | 501 kts | 133° |
| 2026-02-17 10:42 | 39.26147 | 16.12773 | 32618 ft | 500 kts | 133° |
| 2026-02-17 10:42 | 39.21484 | 16.19434 | 32607 ft | 499 kts | 133° |
| 2026-02-17 10:43 | 39.14522 | 16.29382 | 32626 ft | 497 kts | 133° |
| 2026-02-17 10:43 | 39.09885 | 16.35979 | 32627 ft | 496 kts | 133° |
| 2026-02-17 10:44 | 39.05251 | 16.42552 | 32628 ft | 495 kts | 134° |
| 2026-02-17 10:44 | 39.00622 | 16.49101 | 32633 ft | 494 kts | 134° |
| 2026-02-17 10:45 | 38.96003 | 16.55624 | 32619 ft | 493 kts | 134° |
| 2026-02-17 10:45 | 38.91382 | 16.62124 | 32593 ft | 492 kts | 134° |
| 2026-02-17 10:46 | 38.86759 | 16.68597 | 32573 ft | 492 kts | 134° |
| 2026-02-17 10:47 | 38.79831 | 16.78285 | 32577 ft | 490 kts | 134° |
| 2026-02-17 10:47 | 38.75215 | 16.84712 | 32571 ft | 490 kts | 134° |
| 2026-02-17 10:48 | 38.70608 | 16.91120 | 32582 ft | 488 kts | 134° |
| 2026-02-17 10:48 | 38.66015 | 16.97512 | 32575 ft | 487 kts | 134° |
| 2026-02-17 10:49 | 38.61424 | 17.03888 | 32584 ft | 487 kts | 134° |
| 2026-02-17 10:49 | 38.56835 | 17.10237 | 32581 ft | 486 kts | 134° |
| 2026-02-17 10:50 | 38.52239 | 17.16566 | 32587 ft | 486 kts | 134° |
| 2026-02-17 10:50 | 38.48420 | 17.21819 | 32581 ft | 485 kts | 134° |
| 2026-02-17 10:51 | 38.41542 | 17.31283 | 32591 ft | 485 kts | 134° |
| 2026-02-17 10:51 | 38.36953 | 17.37585 | 32596 ft | 484 kts | 134° |
| 2026-02-17 10:52 | 38.32373 | 17.43869 | 32596 ft | 484 kts | 134° |
| 2026-02-17 10:52 | 38.27786 | 17.50145 | 32588 ft | 484 kts | 134° |
| 2026-02-17 10:53 | 38.23186 | 17.56418 | 32584 ft | 484 kts | 134° |
| 2026-02-17 10:53 | 38.18584 | 17.62667 | 32581 ft | 484 kts | 135° |
| 2026-02-17 10:54 | 38.13983 | 17.68905 | 32584 ft | 484 kts | 135° |
| 2026-02-17 10:55 | 38.07079 | 17.78260 | 32585 ft | 483 kts | 134° |
| 2026-02-17 10:55 | 38.02473 | 17.84478 | 32576 ft | 483 kts | 135° |
| 2026-02-17 10:56 | 37.97878 | 17.90706 | 32582 ft | 483 kts | 131° |
| 2026-02-17 10:56 | 37.94019 | 17.97675 | 32578 ft | 484 kts | 123° |
| 2026-02-17 10:57 | 37.90322 | 18.04800 | 32591 ft | 483 kts | 124° |
| 2026-02-17 10:57 | 37.86635 | 18.11849 | 32581 ft | 483 kts | 123° |
| 2026-02-17 10:58 | 37.82928 | 18.18952 | 32588 ft | 483 kts | 123° |
| 2026-02-17 10:58 | 37.79219 | 18.26027 | 32584 ft | 483 kts | 123° |
| 2026-02-17 10:59 | 37.73655 | 18.36626 | 32588 ft | 482 kts | 123° |
| 2026-02-17 10:59 | 37.69945 | 18.43684 | 32585 ft | 482 kts | 123° |
| 2026-02-17 11:00 | 37.66230 | 18.50725 | 32589 ft | 482 kts | 123° |
| 2026-02-17 11:00 | 37.62509 | 18.57753 | 32584 ft | 481 kts | 123° |
| 2026-02-17 11:01 | 37.58794 | 18.64769 | 32587 ft | 481 kts | 123° |
| 2026-02-17 11:01 | 37.55080 | 18.71773 | 32588 ft | 480 kts | 123° |
| 2026-02-17 11:02 | 37.51359 | 18.78767 | 32589 ft | 480 kts | 123° |
| 2026-02-17 11:03 | 37.45770 | 18.89215 | 32590 ft | 479 kts | 123° |
| 2026-02-17 11:03 | 37.42048 | 18.96170 | 32604 ft | 479 kts | 123° |
| 2026-02-17 11:04 | 37.38343 | 19.03132 | 32589 ft | 479 kts | 122° |
| 2026-02-17 11:04 | 37.34764 | 19.10207 | 32596 ft | 479 kts | 121° |
| 2026-02-17 11:05 | 37.31231 | 19.17318 | 32589 ft | 480 kts | 121° |
| 2026-02-17 11:05 | 37.27648 | 19.24393 | 32599 ft | 480 kts | 122° |
| 2026-02-17 11:06 | 37.24046 | 19.31453 | 32588 ft | 480 kts | 122° |
| 2026-02-17 11:06 | 37.20443 | 19.38503 | 32596 ft | 480 kts | 122° |
| 2026-02-17 11:07 | 37.15030 | 19.49070 | 32588 ft | 480 kts | 122° |
| 2026-02-17 11:07 | 37.11420 | 19.56121 | 32590 ft | 481 kts | 122° |
| 2026-02-17 11:08 | 37.07800 | 19.63179 | 32585 ft | 481 kts | 122° |
| 2026-02-17 11:08 | 37.04170 | 19.70220 | 32586 ft | 482 kts | 122° |
| 2026-02-17 11:09 | 37.00555 | 19.77226 | 32587 ft | 482 kts | 123° |
| 2026-02-17 11:09 | 36.96909 | 19.84270 | 32596 ft | 482 kts | 123° |
| 2026-02-17 11:10 | 36.93268 | 19.91320 | 32595 ft | 483 kts | 123° |
| 2026-02-17 11:11 | 36.87788 | 20.01885 | 32599 ft | 483 kts | 123° |
| 2026-02-17 11:11 | 36.84119 | 20.08920 | 32606 ft | 483 kts | 124° |
| 2026-02-17 11:12 | 36.80442 | 20.15956 | 32602 ft | 484 kts | 124° |
| 2026-02-17 11:12 | 36.76759 | 20.22992 | 32610 ft | 484 kts | 124° |
| 2026-02-17 11:13 | 36.73077 | 20.30027 | 32606 ft | 484 kts | 124° |
| 2026-02-17 11:13 | 36.69388 | 20.37054 | 32613 ft | 485 kts | 124° |
| 2026-02-17 11:14 | 36.65687 | 20.44077 | 32606 ft | 485 kts | 125° |
| 2026-02-17 11:14 | 36.61985 | 20.51105 | 32610 ft | 486 kts | 125° |
| 2026-02-17 11:15 | 36.56414 | 20.61650 | 32605 ft | 486 kts | 125° |
| 2026-02-17 11:15 | 36.52686 | 20.68678 | 32609 ft | 487 kts | 126° |
| 2026-02-17 11:16 | 36.48948 | 20.75710 | 32609 ft | 487 kts | 126° |
| 2026-02-17 11:16 | 36.45214 | 20.82745 | 32612 ft | 488 kts | 126° |
| 2026-02-17 11:17 | 36.41491 | 20.89730 | 32610 ft | 488 kts | 126° |
| 2026-02-17 11:17 | 36.37733 | 20.96758 | 32614 ft | 489 kts | 127° |
| 2026-02-17 11:18 | 36.33965 | 21.03788 | 32610 ft | 489 kts | 127° |
| 2026-02-17 11:19 | 36.28303 | 21.14336 | 32610 ft | 490 kts | 127° |
| 2026-02-17 11:19 | 36.24513 | 21.21372 | 32619 ft | 491 kts | 127° |
| 2026-02-17 11:20 | 36.20719 | 21.28413 | 32615 ft | 492 kts | 128° |
| 2026-02-17 11:20 | 36.16915 | 21.35458 | 32624 ft | 492 kts | 128° |
| 2026-02-17 11:21 | 36.13102 | 21.42493 | 32625 ft | 493 kts | 128° |
| 2026-02-17 11:21 | 36.09278 | 21.49540 | 32628 ft | 493 kts | 128° |
| 2026-02-17 11:22 | 36.05448 | 21.56578 | 32628 ft | 494 kts | 128° |
| 2026-02-17 11:22 | 36.01607 | 21.63624 | 32630 ft | 494 kts | 129° |
| 2026-02-17 11:23 | 35.95839 | 21.74185 | 32637 ft | 495 kts | 129° |
| 2026-02-17 11:23 | 35.91979 | 21.81233 | 32676 ft | 498 kts | 129° |
| 2026-02-17 11:24 | 35.88025 | 21.88426 | 32662 ft | 515 kts | 129° |
| 2026-02-17 11:24 | 35.83931 | 21.95856 | 32659 ft | 533 kts | 129° |
| 2026-02-17 11:25 | 35.79703 | 22.03527 | 32666 ft | 548 kts | 129° |
| 2026-02-17 11:25 | 35.75400 | 22.11339 | 32668 ft | 553 kts | 129° |
| 2026-02-17 11:26 | 35.71066 | 22.19166 | 32674 ft | 554 kts | 129° |
| 2026-02-17 11:27 | 35.64550 | 22.30901 | 32676 ft | 554 kts | 129° |
| 2026-02-17 11:27 | 35.60198 | 22.38717 | 32675 ft | 554 kts | 129° |
| 2026-02-17 11:28 | 35.55818 | 22.46570 | 32692 ft | 554 kts | 129° |
| 2026-02-17 11:28 | 35.51458 | 22.54362 | 32687 ft | 554 kts | 129° |
| 2026-02-17 11:29 | 35.47094 | 22.62147 | 32678 ft | 553 kts | 129° |
| 2026-02-17 11:29 | 35.42726 | 22.69917 | 32680 ft | 553 kts | 129° |
| 2026-02-17 11:30 | 35.38382 | 22.77630 | 32687 ft | 553 kts | 129° |
| 2026-02-17 11:30 | 35.34010 | 22.85394 | 32696 ft | 553 kts | 129° |
| 2026-02-17 11:31 | 35.28155 | 22.95752 | 32701 ft | 553 kts | 129° |
| 2026-02-17 11:31 | 35.23768 | 23.03481 | 32706 ft | 553 kts | 129° |
| 2026-02-17 11:32 | 35.19376 | 23.11199 | 32703 ft | 553 kts | 129° |
| 2026-02-17 11:32 | 35.14985 | 23.18913 | 32704 ft | 553 kts | 129° |
| 2026-02-17 11:33 | 35.10578 | 23.26621 | 32708 ft | 553 kts | 129° |
| 2026-02-17 11:33 | 35.06200 | 23.34260 | 32726 ft | 553 kts | 129° |
| 2026-02-17 11:34 | 35.01790 | 23.41968 | 32734 ft | 553 kts | 129° |
| 2026-02-17 11:35 | 34.95169 | 23.53481 | 32746 ft | 552 kts | 129° |
| 2026-02-17 11:35 | 34.90754 | 23.61135 | 32757 ft | 552 kts | 129° |
| 2026-02-17 11:36 | 34.86334 | 23.68790 | 32758 ft | 552 kts | 129° |
| 2026-02-17 11:36 | 34.81909 | 23.76423 | 32763 ft | 551 kts | 129° |
| 2026-02-17 11:37 | 34.77483 | 23.84040 | 32769 ft | 551 kts | 129° |
| 2026-02-17 11:37 | 34.73062 | 23.91647 | 32772 ft | 551 kts | 129° |
| 2026-02-17 11:38 | 34.68634 | 23.99252 | 32777 ft | 551 kts | 129° |
| 2026-02-17 11:38 | 34.64204 | 24.06842 | 32781 ft | 550 kts | 129° |
| 2026-02-17 11:39 | 34.57548 | 24.18193 | 32787 ft | 550 kts | 129° |
| 2026-02-17 11:39 | 34.53115 | 24.25743 | 32792 ft | 549 kts | 129° |
| 2026-02-17 11:40 | 34.48684 | 24.33285 | 32793 ft | 549 kts | 129° |
| 2026-02-17 11:40 | 34.44249 | 24.40801 | 32805 ft | 548 kts | 129° |
| 2026-02-17 11:41 | 34.39814 | 24.48297 | 32819 ft | 547 kts | 129° |
| 2026-02-17 11:41 | 34.35378 | 24.55778 | 32819 ft | 546 kts | 129° |
| 2026-02-17 11:42 | 34.30950 | 24.63245 | 32824 ft | 546 kts | 129° |
| 2026-02-17 11:43 | 34.24315 | 24.74418 | 32829 ft | 545 kts | 129° |
| 2026-02-17 11:43 | 34.19890 | 24.81834 | 32835 ft | 544 kts | 129° |
| 2026-02-17 11:44 | 34.15461 | 24.89232 | 32838 ft | 543 kts | 129° |
| 2026-02-17 11:44 | 34.11039 | 24.96609 | 32844 ft | 542 kts | 129° |
| 2026-02-17 11:45 | 34.06624 | 25.03969 | 32850 ft | 541 kts | 129° |
| 2026-02-17 11:45 | 34.02212 | 25.11315 | 32853 ft | 540 kts | 129° |
| 2026-02-17 11:46 | 33.97840 | 25.18668 | 32857 ft | 540 kts | 127° |
| 2026-02-17 11:46 | 33.93701 | 25.26210 | 32862 ft | 539 kts | 125° |
| 2026-02-17 11:47 | 33.87613 | 25.37588 | 32875 ft | 538 kts | 126° |
| 2026-02-17 11:47 | 33.83492 | 25.45078 | 32882 ft | 536 kts | 126° |
| 2026-02-17 11:48 | 33.79339 | 25.52523 | 32874 ft | 535 kts | 126° |
| 2026-02-17 11:48 | 33.75195 | 25.59950 | 32882 ft | 534 kts | 126° |
| 2026-02-17 11:49 | 33.71077 | 25.67363 | 32887 ft | 533 kts | 126° |
| 2026-02-17 11:49 | 33.66970 | 25.74765 | 32890 ft | 532 kts | 126° |
| 2026-02-17 11:50 | 33.62853 | 25.82141 | 32891 ft | 531 kts | 126° |
| 2026-02-17 11:51 | 33.56688 | 25.93141 | 32896 ft | 529 kts | 126° |
| 2026-02-17 11:51 | 33.52594 | 26.00449 | 32900 ft | 527 kts | 126° |
| 2026-02-17 11:52 | 33.48505 | 26.07726 | 32902 ft | 526 kts | 127° |
| 2026-02-17 11:52 | 33.44421 | 26.14980 | 32905 ft | 524 kts | 127° |
| 2026-02-17 11:53 | 33.40346 | 26.22210 | 32908 ft | 523 kts | 127° |
| 2026-02-17 11:53 | 33.36284 | 26.29409 | 32916 ft | 521 kts | 127° |
| 2026-02-17 11:54 | 33.32221 | 26.36588 | 32912 ft | 520 kts | 127° |
| 2026-02-17 11:54 | 33.28162 | 26.43723 | 32918 ft | 519 kts | 127° |
| 2026-02-17 11:55 | 33.22086 | 26.54395 | 32919 ft | 517 kts | 127° |
| 2026-02-17 11:55 | 33.18049 | 26.61481 | 32925 ft | 515 kts | 127° |
| 2026-02-17 11:56 | 33.14020 | 26.68551 | 32924 ft | 514 kts | 127° |
| 2026-02-17 11:56 | 33.09996 | 26.75584 | 32925 ft | 513 kts | 128° |
| 2026-02-17 11:57 | 33.05970 | 26.82600 | 32928 ft | 512 kts | 128° |
| 2026-02-17 11:57 | 33.01944 | 26.89590 | 32936 ft | 511 kts | 128° |
| 2026-02-17 11:58 | 32.97930 | 26.96570 | 32930 ft | 510 kts | 128° |
| 2026-02-17 11:59 | 32.91912 | 27.07006 | 32930 ft | 509 kts | 128° |
| 2026-02-17 11:59 | 32.87901 | 27.13942 | 32935 ft | 508 kts | 128° |
| 2026-02-17 12:00 | 32.83893 | 27.20855 | 32941 ft | 507 kts | 128° |
| 2026-02-17 12:00 | 32.79893 | 27.27745 | 32946 ft | 506 kts | 128° |
| 2026-02-17 12:01 | 32.75895 | 27.34620 | 32952 ft | 505 kts | 128° |
| 2026-02-17 12:01 | 32.71909 | 27.41462 | 32955 ft | 503 kts | 129° |
| 2026-02-17 12:02 | 32.67930 | 27.48280 | 32961 ft | 502 kts | 129° |
| 2026-02-17 12:02 | 32.63957 | 27.55077 | 32948 ft | 500 kts | 129° |
| 2026-02-17 12:03 | 32.58046 | 27.65172 | 32969 ft | 497 kts | 129° |
| 2026-02-17 12:03 | 32.54100 | 27.71891 | 32970 ft | 496 kts | 130° |
| 2026-02-17 12:04 | 32.50163 | 27.78576 | 32977 ft | 494 kts | 130° |
| 2026-02-17 12:04 | 32.46239 | 27.85233 | 32972 ft | 492 kts | 130° |
| 2026-02-17 12:05 | 32.42318 | 27.91868 | 32976 ft | 491 kts | 130° |
| 2026-02-17 12:05 | 32.38397 | 27.98473 | 32977 ft | 490 kts | 130° |
| 2026-02-17 12:06 | 32.34485 | 28.05073 | 32979 ft | 489 kts | 130° |
| 2026-02-17 12:07 | 32.28626 | 28.14942 | 32985 ft | 488 kts | 130° |
| 2026-02-17 12:07 | 32.24727 | 28.21500 | 32988 ft | 487 kts | 130° |
| 2026-02-17 12:08 | 32.20835 | 28.28034 | 32987 ft | 486 kts | 130° |
| 2026-02-17 12:08 | 32.16939 | 28.34554 | 32981 ft | 485 kts | 130° |
| 2026-02-17 12:09 | 32.13045 | 28.41052 | 32983 ft | 485 kts | 130° |
| 2026-02-17 12:09 | 32.09811 | 28.46447 | 32986 ft | 484 kts | 130° |
| 2026-02-17 12:10 | 32.05918 | 28.52923 | 32986 ft | 484 kts | 130° |
| 2026-02-17 12:10 | 32.02037 | 28.59404 | 32994 ft | 484 kts | 130° |
| 2026-02-17 12:11 | 31.96211 | 28.69108 | 32990 ft | 483 kts | 131° |
| 2026-02-17 12:11 | 31.92314 | 28.75546 | 32993 ft | 483 kts | 131° |
| 2026-02-17 12:12 | 31.88413 | 28.81970 | 32991 ft | 482 kts | 131° |
| 2026-02-17 12:12 | 31.84519 | 28.88395 | 32989 ft | 482 kts | 131° |
| 2026-02-17 12:13 | 31.80626 | 28.94825 | 32984 ft | 483 kts | 131° |
| 2026-02-17 12:13 | 31.76723 | 29.01262 | 32982 ft | 484 kts | 132° |
| 2026-02-17 12:14 | 31.72805 | 29.07694 | 32979 ft | 484 kts | 132° |
| 2026-02-17 12:15 | 31.66899 | 29.17331 | 32977 ft | 485 kts | 132° |
| 2026-02-17 12:15 | 31.62954 | 29.23754 | 32975 ft | 485 kts | 132° |
| 2026-02-17 12:16 | 31.59006 | 29.30181 | 32971 ft | 486 kts | 132° |
| 2026-02-17 12:16 | 31.55043 | 29.36621 | 32974 ft | 487 kts | 133° |
| 2026-02-17 12:17 | 31.51063 | 29.43062 | 32978 ft | 488 kts | 133° |
| 2026-02-17 12:17 | 31.47081 | 29.49502 | 32978 ft | 488 kts | 133° |
| 2026-02-17 12:18 | 31.43096 | 29.55949 | 32979 ft | 489 kts | 133° |
| 2026-02-17 12:18 | 31.39100 | 29.62400 | 32978 ft | 490 kts | 133° |
| 2026-02-17 12:19 | 31.33084 | 29.72086 | 32986 ft | 491 kts | 133° |
| 2026-02-17 12:19 | 31.29060 | 29.78550 | 32989 ft | 492 kts | 133° |
| 2026-02-17 12:20 | 31.25034 | 29.85014 | 32988 ft | 492 kts | 133° |
| 2026-02-17 12:20 | 31.21001 | 29.91477 | 32774 ft | 492 kts | 133° |
| 2026-02-17 12:21 | 31.19176 | 29.94883 | 32488 ft | 498 kts | 124° |
| 2026-02-17 12:21 | 31.17790 | 29.98606 | 31918 ft | 502 kts | 114° |
| 2026-02-17 12:21 | 31.16743 | 30.02491 | 31339 ft | 501 kts | 112° |
| 2026-02-17 12:21 | 31.15701 | 30.06359 | 30736 ft | 498 kts | 112° |
| 2026-02-17 12:22 | 31.14655 | 30.10200 | 30135 ft | 495 kts | 112° |
| 2026-02-17 12:22 | 31.13611 | 30.14019 | 29452 ft | 492 kts | 112° |
| 2026-02-17 12:22 | 31.12578 | 30.17799 | 28859 ft | 487 kts | 112° |
| 2026-02-17 12:23 | 31.10540 | 30.25240 | 27678 ft | 477 kts | 112° |
| 2026-02-17 12:23 | 31.09439 | 30.28861 | 27098 ft | 469 kts | 118° |
| 2026-02-17 12:23 | 31.07960 | 30.32198 | 26530 ft | 459 kts | 127° |
| 2026-02-17 12:23 | 31.06190 | 30.35261 | 25972 ft | 452 kts | 130° |
| 2026-02-17 12:24 | 31.04411 | 30.38265 | 25418 ft | 449 kts | 129° |
| 2026-02-17 12:24 | 31.02649 | 30.41250 | 24862 ft | 445 kts | 129° |
| 2026-02-17 12:24 | 31.00901 | 30.44218 | 24328 ft | 443 kts | 128° |
| 2026-02-17 12:24 | 30.99165 | 30.47170 | 23800 ft | 440 kts | 128° |
| 2026-02-17 12:25 | 30.97439 | 30.50102 | 23224 ft | 438 kts | 128° |
| 2026-02-17 12:25 | 30.95726 | 30.53010 | 22714 ft | 432 kts | 128° |
| 2026-02-17 12:25 | 30.94037 | 30.55876 | 22222 ft | 427 kts | 128° |
| 2026-02-17 12:25 | 30.92365 | 30.58709 | 21748 ft | 421 kts | 128° |
| 2026-02-17 12:26 | 30.90712 | 30.61502 | 21281 ft | 416 kts | 128° |
| 2026-02-17 12:26 | 30.89079 | 30.64255 | 20820 ft | 411 kts | 128° |
| 2026-02-17 12:26 | 30.87465 | 30.66973 | 20363 ft | 406 kts | 128° |
| 2026-02-17 12:27 | 30.84284 | 30.72327 | 19442 ft | 399 kts | 128° |
| 2026-02-17 12:27 | 30.82711 | 30.74971 | 18968 ft | 396 kts | 128° |
| 2026-02-17 12:27 | 30.81151 | 30.77593 | 18505 ft | 393 kts | 128° |
| 2026-02-17 12:27 | 30.79602 | 30.80196 | 17974 ft | 390 kts | 129° |
| 2026-02-17 12:28 | 30.78063 | 30.82782 | 17488 ft | 386 kts | 129° |
| 2026-02-17 12:28 | 30.76544 | 30.85334 | 16980 ft | 382 kts | 129° |
| 2026-02-17 12:28 | 30.75041 | 30.87860 | 16499 ft | 378 kts | 129° |
| 2026-02-17 12:28 | 30.73551 | 30.90361 | 15995 ft | 374 kts | 129° |
| 2026-02-17 12:29 | 30.72077 | 30.92834 | 15508 ft | 371 kts | 129° |
| 2026-02-17 12:29 | 30.70612 | 30.95287 | 15016 ft | 368 kts | 130° |
| 2026-02-17 12:29 | 30.69160 | 30.97718 | 14527 ft | 364 kts | 130° |
| 2026-02-17 12:29 | 30.67720 | 31.00126 | 14041 ft | 361 kts | 130° |
| 2026-02-17 12:30 | 30.66291 | 31.02511 | 13510 ft | 358 kts | 130° |
| 2026-02-17 12:30 | 30.64873 | 31.04873 | 13023 ft | 354 kts | 130° |
| 2026-02-17 12:30 | 30.63474 | 31.07205 | 12537 ft | 350 kts | 130° |
| 2026-02-17 12:31 | 30.60800 | 31.12063 | 11582 ft | 364 kts | 125° |
| 2026-02-17 12:31 | 30.59513 | 31.14596 | 11225 ft | 364 kts | 125° |
| 2026-02-17 12:31 | 30.58148 | 31.17034 | 10803 ft | 357 kts | 129° |
| 2026-02-17 12:31 | 30.56721 | 31.19346 | 10507 ft | 345 kts | 131° |
| 2026-02-17 12:32 | 30.55349 | 31.21504 | 10382 ft | 329 kts | 132° |
| 2026-02-17 12:32 | 30.54007 | 31.23585 | 10235 ft | 316 kts | 132° |
| 2026-02-17 12:32 | 30.52700 | 31.25599 | 9943 ft | 310 kts | 132° |
| 2026-02-17 12:32 | 30.51419 | 31.27576 | 9818 ft | 306 kts | 132° |
| 2026-02-17 12:33 | 30.50144 | 31.29550 | 9547 ft | 305 kts | 132° |
| 2026-02-17 12:33 | 30.48802 | 31.31433 | 9095 ft | 297 kts | 141° |
| 2026-02-17 12:33 | 30.47228 | 31.32878 | 8682 ft | 282 kts | 151° |
| 2026-02-17 12:33 | 30.45632 | 31.34151 | 8274 ft | 275 kts | 151° |
| 2026-02-17 12:34 | 30.44082 | 31.35396 | 7875 ft | 268 kts | 150° |
| 2026-02-17 12:34 | 30.42582 | 31.36603 | 7507 ft | 257 kts | 150° |
| 2026-02-17 12:34 | 30.41135 | 31.37765 | 7105 ft | 250 kts | 150° |
| 2026-02-17 12:35 | 30.38354 | 31.39994 | 6283 ft | 237 kts | 150° |
| 2026-02-17 12:35 | 30.37008 | 31.41074 | 5847 ft | 234 kts | 150° |
| 2026-02-17 12:35 | 30.35676 | 31.42141 | 5411 ft | 232 kts | 149° |
| 2026-02-17 12:35 | 30.34347 | 31.43201 | 4990 ft | 232 kts | 149° |
| 2026-02-17 12:36 | 30.33010 | 31.44263 | 4559 ft | 233 kts | 149° |
| 2026-02-17 12:36 | 30.31671 | 31.45329 | 4134 ft | 233 kts | 149° |
| 2026-02-17 12:36 | 30.30357 | 31.46379 | 3732 ft | 226 kts | 149° |
| 2026-02-17 12:36 | 30.29087 | 31.47397 | 3293 ft | 219 kts | 149° |
| 2026-02-17 12:37 | 30.27857 | 31.48384 | 3011 ft | 209 kts | 150° |
| 2026-02-17 12:37 | 30.26671 | 31.49333 | 3001 ft | 206 kts | 150° |
| 2026-02-17 12:37 | 30.25501 | 31.50268 | 3007 ft | 204 kts | 150° |
| 2026-02-17 12:37 | 30.24333 | 31.51199 | 3007 ft | 204 kts | 150° |
| 2026-02-17 12:38 | 30.23191 | 31.52112 | 3025 ft | 196 kts | 150° |
| 2026-02-17 12:38 | 30.22066 | 31.52973 | 2940 ft | 188 kts | 157° |
| 2026-02-17 12:38 | 30.20843 | 31.53251 | 2496 ft | 176 kts | 189° |
| 2026-02-17 12:39 | 30.18948 | 31.51798 | 1984 ft | 157 kts | 231° |
| 2026-02-17 12:39 | 30.18268 | 31.50894 | 1977 ft | 140 kts | 230° |
| 2026-02-17 12:39 | 30.17648 | 31.50067 | 1906 ft | 134 kts | 231° |
| 2026-02-17 12:39 | 30.17043 | 31.49259 | 1780 ft | 132 kts | 231° |
| 2026-02-17 12:40 | 30.16442 | 31.48457 | 1622 ft | 131 kts | 231° |
| 2026-02-17 12:40 | 30.15849 | 31.47666 | 1453 ft | 130 kts | 232° |
| 2026-02-17 12:40 | 30.15257 | 31.46875 | 1282 ft | 130 kts | 231° |
| 2026-02-17 12:40 | 30.14668 | 31.46090 | 1108 ft | 129 kts | 232° |
| 2026-02-17 12:41 | 30.14078 | 31.45302 | 941 ft | 129 kts | 232° |
| 2026-02-17 12:41 | 30.13481 | 31.44506 | 763 ft | 132 kts | 230° |
| 2026-02-17 12:41 | 30.12886 | 31.43716 | 573 ft | 129 kts | 229° |
| 2026-02-17 12:41 | 30.12303 | 31.42933 | 408 ft | 129 kts | 229° |
| 2026-02-17 12:42 | 30.11752 | 31.42198 | 371 ft | 104 kts | 230° |
| 2026-02-17 12:42 | 30.11373 | 31.41695 | 375 ft | 70 kts | 228° |
| 2026-02-17 12:42 | 30.11070 | 31.41289 | 375 ft | 64 kts | 229° |
| 2026-02-17 12:43 | 30.10749 | 31.40767 | 373 ft | 13 kts | 283° |
| 2026-02-17 12:43 | 30.10805 | 31.40690 | 375 ft | 13 kts | 323° |
| 2026-02-17 12:43 | 30.10845 | 31.40599 | 374 ft | 14 kts | 248° |
| 2026-02-17 12:43 | 30.10779 | 31.40508 | 374 ft | 15 kts | 229° |
| 2026-02-17 12:44 | 30.10706 | 31.40410 | 374 ft | 17 kts | 229° |
| 2026-02-17 12:44 | 30.10705 | 31.40297 | 374 ft | 16 kts | 292° |
| 2026-02-17 12:44 | 30.10659 | 31.40193 | 374 ft | 16 kts | 227° |
| 2026-02-17 12:44 | 30.10583 | 31.40090 | 374 ft | 18 kts | 229° |
| 2026-02-17 12:45 | 30.10499 | 31.39978 | 374 ft | 19 kts | 229° |
| 2026-02-17 12:45 | 30.10531 | 31.39861 | 374 ft | 19 kts | 339° |
| 2026-02-17 12:45 | 30.10657 | 31.39821 | 374 ft | 19 kts | 344° |
| 2026-02-17 12:45 | 30.10750 | 31.39794 | 374 ft | 10 kts | 346° |
| 2026-02-17 12:46 | 30.10778 | 31.39787 | 374 ft | 3 kts | 355° |
| 2026-02-17 12:46 | 30.10793 | 31.39797 | 374 ft | 3 kts | 48° |
| 2026-02-17 12:46 | 30.10799 | 31.39820 | 374 ft | 3 kts | 79° |
| 2026-02-17 12:47 | 30.10804 | 31.39853 | 374 ft | 0 kts | 79° |
| 2026-02-17 12:57 | 30.10804 | 31.39852 | 374 ft | 0 kts | 79° |
| 2026-02-17 13:09 | 30.10804 | 31.39851 | 374 ft | 0 kts | 79° |
| 2026-02-17 13:23 | 30.10804 | 31.39850 | 374 ft | 0 kts | 79° |
| 2026-02-17 13:29 | 30.10803 | 31.39850 | 374 ft | 0 kts | 79° |
| 2026-02-17 13:35 | 30.10803 | 31.39849 | 374 ft | 0 kts | 79° |